Time;durP1;ratioP1;P1;durP2;ratioP2;P2;SDS_P1;SDS_P2;PMS_P1;PMS_P2;Temp;Humidity;BMP_temperature;BMP_pressure;BME280_temperature;BME280_humidity;BME280_pressure;Samples;Min_cycle;Max_cycle;Signal;HPM_P1;HPM_P2
2023/10/19 00:00:45;;;;;;;13.75;9.68;;;12.70;99.90;;;14.22;65.97;96024.34;5018076;28;20042;-42
2023/10/19 00:03:13;;;;;;;13.70;10.25;;;12.70;99.90;;;14.24;65.89;96014.22;5011259;28;20054;-43
2023/10/19 00:05:41;;;;;;;14.60;11.13;;;12.60;99.90;;;14.23;65.88;96015.28;5011033;28;20050;-42
2023/10/19 00:08:17;;;;;;;14.52;11.82;;;12.50;99.90;;;14.22;66.04;96007.47;5010866;28;20046;-41
2023/10/19 00:10:50;;;;;;;16.85;12.10;;;12.50;99.90;;;14.18;65.84;96009.78;5011186;28;20050;-44
2023/10/19 00:13:19;;;;;;;20.98;12.60;;;12.50;99.90;;;14.15;65.94;96011.03;5009746;28;20049;-45
2023/10/19 00:15:48;;;;;;;17.70;12.50;;;12.40;99.90;;;14.14;65.96;96016.63;5010884;28;20045;-46
2023/10/19 00:23:28;;;;;;;10.35;7.38;;;12.40;99.90;;;14.14;66.42;96006.72;5011179;28;20046;-46
2023/10/19 00:26:15;;;;;;;8.82;5.82;;;12.50;99.90;;;14.17;66.68;96017.00;5003619;28;20046;-42
2023/10/19 00:28:52;;;;;;;7.35;5.40;;;12.60;99.90;;;14.21;66.54;96016.53;5010381;28;20045;-43
2023/10/19 00:31:20;;;;;;;8.00;5.57;;;12.70;99.90;;;14.23;66.60;96009.94;5011032;28;20421;-42
2023/10/19 00:33:54;;;;;;;7.45;5.82;;;12.70;99.90;;;14.25;66.69;96013.19;5009471;28;20049;-45
2023/10/19 00:36:23;;;;;;;7.93;5.22;;;12.70;99.90;;;14.25;66.93;96005.16;5017812;28;20046;-47
2023/10/19 00:38:56;;;;;;;7.80;5.40;;;12.80;99.90;;;14.29;67.06;96002.88;5010529;28;20034;-44
2023/10/19 00:41:32;;;;;;;7.90;5.68;;;12.80;99.90;;;14.32;67.24;95999.72;5009666;28;20591;-43
2023/10/19 00:44:16;;;;;;;9.02;5.85;;;12.80;99.90;;;14.35;67.13;95994.75;5002170;28;20046;-41
2023/10/19 00:46:49;;;;;;;8.45;5.85;;;12.80;99.90;;;14.38;67.04;95985.44;5010895;28;20038;-42
2023/10/19 00:49:17;;;;;;;8.35;5.38;;;12.80;99.90;;;14.42;67.09;95977.78;5009226;28;20050;-42
2023/10/19 00:54:33;;;;;;;9.45;5.03;;;12.90;99.90;;;14.50;67.24;95983.63;5009572;28;20041;-43
2023/10/19 00:57:08;;;;;;;6.38;4.85;;;13.00;99.90;;;14.53;67.13;95975.13;5010339;28;20042;-41
2023/10/19 00:59:48;;;;;;;8.68;6.57;;;13.00;99.90;;;14.57;67.16;95971.00;5009046;28;20057;-45
2023/10/19 01:02:28;;;;;;;6.70;4.97;;;13.10;99.90;;;14.61;67.27;95963.31;5010819;28;20053;-45
2023/10/19 01:05:06;;;;;;;6.28;4.75;;;13.10;99.90;;;14.63;67.05;95965.78;5012503;28;20494;-43
2023/10/19 01:07:38;;;;;;;8.07;5.45;;;13.10;99.90;;;14.67;67.16;95969.63;5012772;28;20046;-45
2023/10/19 01:10:11;;;;;;;7.35;4.90;;;13.20;99.90;;;14.67;67.23;95959.72;5013110;28;20501;-43
2023/10/19 01:12:39;;;;;;;6.35;4.43;;;13.20;99.90;;;14.69;67.10;95959.50;5020944;28;20049;-46
2023/10/19 01:15:52;;;;;;;7.05;5.50;;;13.20;99.90;;;14.69;67.34;95960.31;5014346;28;20061;-42
2023/10/19 01:18:14;;;;;;;8.02;4.07;;;13.20;99.90;;;14.71;67.46;95962.78;5005850;28;20053;-43
2023/10/19 01:20:50;;;;;;;6.88;4.63;;;13.20;99.90;;;14.72;67.59;95956.38;5012784;28;20080;-43
2023/10/19 01:23:38;;;;;;;6.13;4.47;;;13.20;99.90;;;14.74;67.66;95955.09;5015352;28;20057;-42
2023/10/19 01:26:07;;;;;;;7.43;4.30;;;13.30;99.90;;;14.77;67.65;95948.47;5013037;28;20050;-41
2023/10/19 01:34:00;;;;;;;5.78;3.88;;;13.30;99.90;;;14.85;67.92;95945.47;5013367;28;20046;-41
2023/10/19 01:36:32;;;;;;;7.75;4.13;;;13.40;99.90;;;14.87;67.62;95938.03;5012939;28;20046;-42
2023/10/19 01:39:09;;;;;;;6.50;3.80;;;13.40;99.90;;;14.90;67.92;95934.88;5012648;28;20060;-44
2023/10/19 01:41:41;;;;;;;5.03;3.78;;;13.50;99.90;;;14.95;67.60;95934.19;5013903;28;20038;-42
2023/10/19 01:44:13;;;;;;;5.25;3.55;;;13.50;99.90;;;14.98;67.68;95927.56;5012480;28;20049;-41
2023/10/19 01:46:45;;;;;;;6.45;3.80;;;13.50;99.90;;;14.96;67.72;95920.53;5012368;28;20054;-43
2023/10/19 01:49:13;;;;;;;5.88;4.50;;;13.60;99.90;;;14.96;67.80;95917.06;5021016;28;20058;-42
2023/10/19 01:51:44;;;;;;;7.55;3.75;;;13.50;99.90;;;14.98;67.66;95920.31;5004651;28;20402;-43
2023/10/19 01:54:11;;;;;;;5.32;3.92;;;13.60;99.90;;;15.00;67.83;95920.91;5012740;28;20049;-45
2023/10/19 01:56:42;;;;;;;4.78;3.95;;;13.60;99.90;;;15.03;67.73;95920.44;5012493;28;20045;-42
2023/10/19 01:59:10;;;;;;;4.60;3.85;;;13.60;99.90;;;15.06;67.74;95921.84;5013272;28;20278;-44
2023/10/19 02:01:41;;;;;;;5.38;4.05;;;13.60;99.90;;;15.07;67.76;95920.81;5012599;28;20050;-42
2023/10/19 02:04:09;;;;;;;6.88;4.25;;;13.60;99.90;;;15.09;67.54;95908.00;4997660;28;20076;-45
2023/10/19 02:06:38;;;;;;;6.15;3.90;;;13.60;99.90;;;15.13;67.53;95907.28;5012354;28;20049;-42
2023/10/19 02:11:46;;;;;;;7.00;4.30;;;13.70;99.90;;;15.14;67.81;95914.28;5019928;28;20054;-43
2023/10/19 02:14:19;;;;;;;7.25;4.50;;;13.70;99.90;;;15.15;67.79;95912.41;4996598;28;20046;-41
2023/10/19 02:16:51;;;;;;;7.90;4.05;;;13.70;99.90;;;15.16;67.66;95906.84;5012176;28;20050;-46
2023/10/19 02:19:21;;;;;;;5.25;4.03;;;13.70;99.90;;;15.18;67.58;95897.72;5010622;28;20056;-44
2023/10/19 02:21:57;;;;;;;8.85;4.93;;;13.70;99.90;;;15.19;67.61;95881.41;5013119;28;20048;-42
2023/10/19 02:24:25;;;;;;;5.93;3.47;;;13.70;99.90;;;15.21;67.90;95882.00;5012200;28;20050;-43
2023/10/19 02:26:57;;;;;;;5.28;4.22;;;13.70;99.90;;;15.23;67.56;95889.81;4993397;28;20054;-42
2023/10/19 02:29:28;;;;;;;5.32;4.00;;;13.70;99.90;;;15.23;67.56;95882.56;5012736;28;20046;-45
2023/10/19 02:31:56;;;;;;;5.55;3.72;;;13.70;99.90;;;15.26;67.45;95878.63;5011619;28;20049;-44
2023/10/19 02:34:24;;;;;;;5.97;4.43;;;13.70;99.90;;;15.23;67.56;95877.22;5012685;28;20038;-45
2023/10/19 02:36:53;;;;;;;7.68;4.13;;;13.60;99.90;;;15.23;67.56;95869.19;5011150;28;20506;-42
2023/10/19 02:39:25;;;;;;;6.40;4.38;;;13.70;99.90;;;15.24;67.53;95868.13;5010598;28;20042;-42
2023/10/19 02:41:54;;;;;;;6.18;4.40;;;13.60;99.90;;;15.24;67.55;95870.81;5012721;28;20053;-41
2023/10/19 02:44:22;;;;;;;5.05;4.13;;;13.70;99.90;;;15.25;67.54;95877.78;5012021;28;20046;-41
2023/10/19 02:46:58;;;;;;;8.90;4.18;;;13.70;99.90;;;15.25;67.58;95867.06;5012353;28;20053;-47
2023/10/19 02:49:29;;;;;;;5.40;3.97;;;13.70;99.90;;;15.29;67.63;95862.06;5018992;28;20148;-41
2023/10/19 02:52:04;;;;;;;4.32;3.60;;;13.70;99.90;;;15.28;67.76;95855.91;5010856;28;20050;-41
2023/10/19 02:54:35;;;;;;;5.45;3.90;;;13.70;99.90;;;15.27;67.78;95846.22;5011699;28;20072;-43
2023/10/19 02:57:06;;;;;;;6.82;3.55;;;13.70;99.90;;;15.24;67.98;95844.00;5011438;28;20064;-44
2023/10/19 02:59:36;;;;;;;5.15;3.30;;;13.70;99.90;;;15.19;67.96;95843.88;5010675;28;20046;-42
2023/10/19 03:02:16;;;;;;;5.25;3.20;;;13.70;99.90;;;15.16;68.00;95839.00;5011288;28;20049;-46
2023/10/19 03:04:45;;;;;;;3.90;3.10;;;13.60;99.90;;;15.11;68.29;95842.38;5011077;28;20054;-44
2023/10/19 03:07:15;;;;;;;5.65;3.42;;;13.60;99.90;;;15.09;68.27;95833.75;5012076;28;20042;-42
2023/10/19 03:09:49;;;;;;;6.93;3.70;;;13.60;99.90;;;15.09;68.12;95836.44;5010840;28;20046;-42
2023/10/19 03:12:18;;;;;;;4.88;3.58;;;13.50;99.90;;;15.07;68.33;95845.78;5004754;28;20041;-43
2023/10/19 03:14:47;;;;;;;6.45;3.70;;;13.50;99.90;;;15.03;68.17;95834.69;5002370;28;20505;-41
2023/10/19 03:17:15;;;;;;;6.82;4.45;;;13.40;99.90;;;14.99;68.19;95827.38;5009881;28;20046;-41
2023/10/19 03:19:44;;;;;;;6.00;3.78;;;13.40;99.90;;;14.96;68.21;95834.81;5010729;28;20425;-42
2023/10/19 03:22:12;;;;;;;5.47;3.90;;;13.40;99.90;;;14.91;68.33;95832.03;5004098;28;20042;-43
2023/10/19 03:24:43;;;;;;;6.18;3.85;;;13.30;99.90;;;14.87;68.56;95830.88;5012226;28;20046;-41
2023/10/19 03:27:23;;;;;;;5.70;4.13;;;13.30;99.90;;;14.83;68.55;95832.38;5011565;28;20050;-42
2023/10/19 03:29:55;;;;;;;5.22;4.05;;;13.20;99.90;;;14.82;68.67;95829.91;5009917;28;20050;-42
2023/10/19 03:32:32;;;;;;;6.50;4.07;;;13.20;99.90;;;14.80;68.92;95826.66;5011808;28;20058;-43
2023/10/19 03:35:01;;;;;;;7.05;3.95;;;13.20;99.90;;;14.79;68.75;95819.66;5010826;28;20053;-48
2023/10/19 03:37:30;;;;;;;9.15;5.45;;;13.20;99.90;;;14.77;68.97;95817.22;5010430;28;20049;-48
2023/10/19 03:39:58;;;;;;;14.02;8.55;;;13.20;99.90;;;14.72;68.98;95820.59;5009999;28;20422;-43
2023/10/19 03:42:31;;;;;;;11.45;7.03;;;13.20;99.90;;;14.70;69.03;95809.28;5002189;28;20077;-43
2023/10/19 03:45:02;;;;;;;6.45;5.05;;;13.10;99.90;;;14.71;68.99;95810.09;5010139;28;20065;-43
2023/10/19 03:47:36;;;;;;;6.30;4.72;;;13.10;99.90;;;14.68;69.16;95807.91;5011457;28;20405;-42
2023/10/19 03:50:07;;;;;;;;;;;13.10;99.90;;;14.67;69.00;95801.72;5011754;28;20053;-44
2023/10/19 03:52:39;;;;;;;7.10;4.88;;;13.10;99.90;;;14.72;68.84;95807.19;5010133;28;19922;-44
2023/10/19 03:55:23;;;;;;;11.20;6.13;;;13.10;99.90;;;14.73;68.99;95799.97;5002104;28;20094;-41
2023/10/19 03:57:54;;;;;;;;;;;13.10;99.90;;;14.71;68.86;95799.38;5004241;28;20053;-44
2023/10/19 04:00:27;;;;;;;12.05;7.47;;;13.20;99.90;;;14.73;68.71;95797.28;5009986;28;20300;-44
2023/10/19 04:02:55;;;;;;;16.45;8.73;;;13.10;99.90;;;14.74;68.80;95789.03;5009965;28;20057;-45
2023/10/19 04:05:24;;;;;;;8.50;5.72;;;13.10;99.90;;;14.73;68.87;95786.59;5011327;28;20053;-42
2023/10/19 04:07:55;;;;;;;7.85;5.38;;;13.20;99.90;;;14.73;68.78;95784.75;5011000;28;20046;-46
2023/10/19 04:10:30;;;;;;;6.82;4.75;;;13.20;99.90;;;14.72;68.99;95790.31;5010921;28;20417;-42
2023/10/19 04:13:00;;;;;;;6.85;4.45;;;13.20;99.90;;;14.74;69.12;95785.56;5017931;28;20034;-43
2023/10/19 04:15:29;;;;;;;4.93;3.42;;;13.20;99.90;;;14.72;69.07;95779.59;5011056;28;20034;-44
2023/10/19 04:17:58;;;;;;;3.78;3.03;;;13.20;99.90;;;14.72;69.35;95777.75;5010160;28;20048;-42
2023/10/19 04:22:54;;;;;;;5.15;3.75;;;13.30;99.90;;;14.77;69.31;95767.16;5009381;28;20054;-42
2023/10/19 04:25:29;;;;;;;7.38;3.35;;;13.30;99.90;;;14.74;69.46;95769.47;5011141;28;20042;-43
2023/10/19 04:27:57;;;;;;;7.95;3.60;;;13.30;99.90;;;14.75;69.62;95773.78;5010939;28;20524;-44
2023/10/19 04:30:25;;;;;;;5.07;3.95;;;13.30;99.90;;;14.77;69.66;95766.31;5010864;28;20095;-42
2023/10/19 04:32:57;;;;;;;6.20;3.60;;;13.30;99.90;;;14.74;69.92;95769.47;5010817;28;20453;-43
2023/10/19 04:35:29;;;;;;;6.55;3.42;;;13.30;99.90;;;14.77;69.85;95766.31;5010285;28;20049;-44
2023/10/19 04:37:58;;;;;;;5.43;3.53;;;13.40;99.90;;;14.79;69.71;95761.53;5010714;28;20045;-42
2023/10/19 04:40:28;;;;;;;4.20;2.95;;;13.40;99.90;;;14.83;69.82;95757.38;5013427;28;20534;-43
2023/10/19 04:42:56;;;;;;;6.40;3.40;;;13.40;99.90;;;14.84;69.74;95758.97;5014938;28;20053;-43
2023/10/19 04:45:24;;;;;;;4.78;3.25;;;13.40;99.90;;;14.86;69.79;95751.53;5014785;28;20053;-43
2023/10/19 04:47:52;;;;;;;3.90;3.28;;;13.40;99.90;;;14.90;69.64;95755.38;5014880;28;20413;-42
2023/10/19 04:50:21;;;;;;;6.78;4.57;;;13.50;99.90;;;14.92;69.63;95760.50;5013820;28;20421;-44
2023/10/19 04:52:48;;;;;;;4.53;3.15;;;13.50;99.90;;;14.91;69.40;95769.59;5014817;28;20193;-44
2023/10/19 04:55:16;;;;;;;6.25;3.30;;;13.40;99.90;;;14.91;69.67;95765.03;5014613;28;20034;-43
2023/10/19 04:57:44;;;;;;;5.15;3.40;;;13.50;99.90;;;14.92;69.68;95755.94;5014776;28;20042;-44
2023/10/19 05:00:14;;;;;;;5.35;3.45;;;13.40;99.90;;;14.96;69.65;95758.97;5014280;28;20065;-44
2023/10/19 05:02:42;;;;;;;6.40;3.38;;;13.50;99.90;;;14.95;69.52;95752.81;5014870;28;20046;-42
2023/10/19 05:05:10;;;;;;;4.65;3.17;;;13.50;99.90;;;14.98;69.46;95756.06;5014445;28;20083;-42
2023/10/19 05:07:38;;;;;;;5.10;3.10;;;13.50;99.90;;;14.99;69.42;95755.03;5014651;28;20042;-44
2023/10/19 05:10:07;;;;;;;4.03;3.28;;;13.50;99.90;;;14.99;69.68;95755.84;5014487;28;20057;-43
2023/10/19 05:12:34;;;;;;;4.88;2.97;;;13.50;99.90;;;14.99;69.64;95761.19;5014441;28;20046;-41
2023/10/19 05:15:02;;;;;;;4.97;3.10;;;13.50;99.90;;;15.00;69.69;95760.13;5013932;28;20049;-43
2023/10/19 05:17:30;;;;;;;4.10;3.58;;;13.50;99.90;;;15.00;69.57;95757.44;5013459;28;20057;-47
2023/10/19 05:19:58;;;;;;;5.63;3.28;;;13.50;99.90;;;14.99;69.72;95753.16;5013809;28;20053;-45
2023/10/19 05:22:29;;;;;;;4.53;3.65;;;13.50;99.90;;;15.00;69.60;95760.13;5014284;28;20042;-42
2023/10/19 05:24:57;;;;;;;6.10;3.92;;;13.50;99.90;;;15.01;69.55;95767.13;5013847;28;20409;-45
2023/10/19 05:27:25;;;;;;;7.07;3.67;;;13.50;99.90;;;14.99;69.72;95763.06;5013010;28;20517;-43
2023/10/19 05:29:52;;;;;;;7.32;4.00;;;13.50;99.90;;;14.94;69.96;95756.53;5012800;28;20038;-42
2023/10/19 05:32:20;;;;;;;7.32;3.92;;;13.50;99.90;;;14.93;70.03;95759.47;5014176;28;20045;-42
2023/10/19 05:34:48;;;;;;;4.55;3.65;;;13.50;99.90;;;14.93;70.13;95760.25;5014751;28;20038;-43
2023/10/19 05:37:17;;;;;;;4.22;3.47;;;13.50;99.90;;;14.93;70.26;95754.09;5012700;28;20038;-42
2023/10/19 05:39:45;;;;;;;6.00;3.20;;;13.50;99.90;;;14.93;69.76;95767.50;5013950;28;20049;-42
2023/10/19 05:42:12;;;;;;;4.45;3.58;;;13.50;99.90;;;14.94;69.91;95761.06;5013963;28;20044;-41
2023/10/19 05:44:40;;;;;;;6.05;3.22;;;13.50;99.90;;;14.93;70.27;95767.50;5013720;28;20053;-41
2023/10/19 05:47:08;;;;;;;5.28;3.28;;;13.40;99.90;;;14.96;70.21;95767.00;5013611;28;20038;-42
2023/10/19 05:49:35;;;;;;;4.15;3.33;;;13.50;99.90;;;14.99;70.02;95760.38;5013723;28;20050;-44
2023/10/19 05:52:03;;;;;;;5.47;3.60;;;13.60;99.90;;;14.98;70.21;95762.22;5011423;28;20045;-43
2023/10/19 05:54:31;;;;;;;5.95;3.35;;;13.50;99.90;;;14.96;70.05;95754.41;5003764;28;20057;-44
2023/10/19 05:56:59;;;;;;;5.55;3.50;;;13.50;99.90;;;14.95;70.02;95765.41;5013634;28;20042;-47
2023/10/19 05:59:29;;;;;;;5.93;3.92;;;13.40;99.90;;;14.94;70.09;95756.53;5005576;28;20044;-45
2023/10/19 06:01:56;;;;;;;6.82;4.50;;;13.40;99.90;;;14.92;70.21;95761.28;5013616;28;20052;-43
2023/10/19 06:04:24;;;;;;;5.57;3.80;;;13.40;99.90;;;14.93;70.39;95768.31;5013571;28;20502;-43
2023/10/19 06:06:52;;;;;;;6.88;4.40;;;13.40;99.90;;;14.95;70.49;95770.75;5013537;28;20049;-45
2023/10/19 06:09:20;;;;;;;5.60;3.63;;;13.40;99.90;;;14.98;70.41;95770.25;5013080;28;20045;-43
2023/10/19 06:11:49;;;;;;;7.15;4.15;;;13.50;99.90;;;15.00;70.41;95770.84;5013321;28;20056;-41
2023/10/19 06:14:17;;;;;;;6.47;4.60;;;13.50;99.90;;;15.02;70.41;95774.09;5013380;28;20049;-42
2023/10/19 06:16:45;;;;;;;10.60;7.00;;;13.50;99.90;;;15.08;70.33;95775.03;5013039;28;20431;-41
2023/10/19 06:19:12;;;;;;;7.60;5.70;;;13.60;99.90;;;15.14;70.52;95785.63;5012031;28;20494;-41
2023/10/19 06:21:40;;;;;;;6.60;4.97;;;13.70;99.90;;;15.19;70.44;95784.94;5020327;28;20041;-41
2023/10/19 06:24:07;;;;;;;7.35;4.32;;;13.70;99.90;;;15.22;70.05;95780.94;5020041;28;20033;-40
2023/10/19 06:27:29;;;;;;;8.15;5.13;;;13.70;99.90;;;15.26;70.15;95776.78;5013561;28;20057;-42
2023/10/19 06:29:57;;;;;;;6.72;3.88;;;13.80;99.90;;;15.32;69.97;95776.63;5012479;28;20065;-40
2023/10/19 06:32:26;;;;;;;7.03;3.38;;;13.80;99.90;;;15.35;69.86;95768.13;5013975;28;20049;-40
2023/10/19 06:34:58;;;;;;;5.43;3.78;;;13.90;99.90;;;15.38;69.83;95777.56;5013729;28;20466;-42
2023/10/19 06:37:27;;;;;;;4.85;3.88;;;13.90;99.90;;;15.43;69.87;95771.47;5013520;28;20042;-41
2023/10/19 06:39:54;;;;;;;5.88;4.03;;;14.00;99.90;;;15.47;69.61;95777.97;5013680;28;20362;-41
2023/10/19 06:42:22;;;;;;;6.60;3.80;;;14.00;99.90;;;15.49;69.56;95771.34;5013760;28;20405;-41
2023/10/19 06:44:53;;;;;;;5.10;3.45;;;14.00;99.90;;;15.51;69.63;95771.91;5014179;28;20041;-41
2023/10/19 06:47:22;;;;;;;5.43;3.42;;;14.10;99.90;;;15.55;69.48;95770.38;5013196;28;20050;-41
2023/10/19 06:49:50;;;;;;;5.18;3.50;;;14.10;99.90;;;15.56;69.70;95769.31;5013187;28;20046;-40
2023/10/19 06:52:17;;;;;;;7.07;3.60;;;14.10;99.90;;;15.56;69.92;95772.00;5013628;28;20053;-42
2023/10/19 06:54:45;;;;;;;4.65;3.03;;;14.10;99.90;;;15.56;69.96;95777.38;5013467;28;20050;-43
2023/10/19 06:57:12;;;;;;;4.90;3.40;;;14.10;99.90;;;15.58;70.07;95774.44;5013412;28;20049;-41
2023/10/19 06:59:40;;;;;;;5.82;3.33;;;14.20;99.90;;;15.59;69.82;95770.72;5013447;28;20395;-41
2023/10/19 07:02:07;;;;;;;4.72;3.50;;;14.30;99.90;;;15.60;69.93;95760.81;5004113;28;20060;-41
2023/10/19 07:04:36;;;;;;;4.25;3.75;;;14.30;99.90;;;15.62;70.03;95762.19;5013215;28;20045;-46
2023/10/19 07:07:04;;;;;;;6.00;3.58;;;14.30;99.90;;;15.62;69.79;95764.88;5011946;28;20046;-43
2023/10/19 07:09:31;;;;;;;6.30;3.72;;;14.30;99.90;;;15.64;69.90;95759.28;5012972;28;20046;-43
2023/10/19 07:12:00;;;;;;;7.95;4.65;;;14.30;99.90;;;15.61;70.04;95759.78;5013364;28;20068;-43
2023/10/19 07:14:28;;;;;;;5.68;4.18;;;14.30;99.90;;;15.61;69.75;95760.56;5013247;28;20548;-44
2023/10/19 07:16:56;;;;;;;5.63;3.72;;;14.30;99.90;;;15.60;69.84;95758.94;5012848;28;20482;-44
2023/10/19 07:19:23;;;;;;;6.25;4.22;;;14.30;99.90;;;15.59;69.75;95768.06;5011852;28;20486;-45
2023/10/19 07:21:57;;;;;;;6.63;4.57;;;14.30;99.90;;;15.59;69.76;95762.69;5013239;28;20049;-43
2023/10/19 07:24:25;;;;;;;8.00;4.30;;;14.30;99.90;;;15.60;69.70;95761.63;5013048;28;20046;-42
2023/10/19 07:27:04;;;;;;;8.27;4.47;;;14.30;99.90;;;15.63;69.83;95761.16;5013029;28;20061;-45
2023/10/19 07:29:33;;;;;;;5.70;3.88;;;14.30;99.90;;;15.69;69.51;95765.56;5004702;28;20046;-44
2023/10/19 07:32:02;;;;;;;7.35;4.10;;;14.30;99.90;;;15.72;69.39;95767.78;5013295;28;20053;-44
2023/10/19 07:34:34;;;;;;;6.07;4.55;;;14.30;99.90;;;15.72;69.42;95765.09;5013699;28;20069;-46
2023/10/19 07:37:03;;;;;;;6.45;4.93;;;14.30;99.90;;;15.73;69.36;95758.69;5011691;28;20389;-46
2023/10/19 07:39:33;;;;;;;6.45;4.50;;;14.40;99.90;;;15.74;69.64;95763.00;5012439;28;20504;-44
2023/10/19 07:42:01;;;;;;;7.75;4.38;;;14.40;99.90;;;15.75;69.29;95761.94;5012852;28;20497;-46
2023/10/19 07:44:30;;;;;;;7.25;4.75;;;14.40;99.90;;;15.77;69.26;95758.22;5012778;28;20034;-44
2023/10/19 07:46:58;;;;;;;5.65;4.15;;;14.40;99.90;;;15.80;69.41;95763.91;5012484;28;20049;-47
2023/10/19 07:49:26;;;;;;;8.23;4.82;;;14.50;99.90;;;15.82;69.30;95756.44;5012347;28;20502;-44
2023/10/19 07:51:53;;;;;;;11.35;5.70;;;14.50;99.90;;;15.82;69.28;95759.13;5012137;28;20053;-45
2023/10/19 07:54:25;;;;;;;5.70;4.13;;;14.50;99.90;;;15.85;69.41;95757.81;5012502;28;20065;-46
2023/10/19 07:56:54;;;;;;;8.65;4.68;;;14.60;99.90;;;15.91;69.57;95756.84;5012469;28;20045;-46
2023/10/19 07:59:22;;;;;;;6.32;3.80;;;14.60;99.90;;;15.97;69.53;95752.41;5011950;28;20042;-47
2023/10/19 08:01:49;;;;;;;5.88;4.60;;;14.70;99.90;;;16.04;69.37;95747.69;5011528;28;20373;-45
2023/10/19 08:04:17;;;;;;;6.15;4.40;;;14.70;99.90;;;16.10;69.07;95749.41;5011397;28;20498;-45
2023/10/19 08:06:45;;;;;;;7.28;4.38;;;14.80;99.90;;;16.13;69.09;95736.31;5011526;28;20497;-46
2023/10/19 08:09:12;;;;;;;5.80;4.22;;;14.80;99.90;;;16.18;69.00;95726.72;5011098;28;20552;-46
2023/10/19 08:11:42;;;;;;;7.78;4.15;;;14.90;99.90;;;16.19;69.03;95737.22;5011235;28;20410;-45
2023/10/19 08:14:09;;;;;;;7.63;3.63;;;14.90;99.90;;;16.23;69.06;95737.56;5011111;28;20042;-46
2023/10/19 08:16:37;;;;;;;7.40;3.78;;;14.90;99.90;;;16.28;69.05;95735.75;5002355;28;20092;-48
2023/10/19 08:19:07;;;;;;;4.97;3.42;;;15.00;99.90;;;16.34;69.26;95737.47;5010992;28;20046;-46
2023/10/19 08:21:34;;;;;;;6.38;3.63;;;15.10;99.90;;;16.41;69.14;95736.50;5010651;28;20045;-44
2023/10/19 08:24:04;;;;;;;5.80;3.53;;;15.20;99.90;;;16.45;69.20;95741.13;5011364;28;20049;-45
2023/10/19 08:26:32;;;;;;;4.10;3.55;;;15.20;99.90;;;16.52;69.12;95746.34;5011053;28;20831;-43
2023/10/19 08:28:59;;;;;;;7.68;3.72;;;15.30;99.90;;;16.56;69.19;95746.69;5009532;28;20053;-43
2023/10/19 08:31:27;;;;;;;6.30;3.88;;;15.40;99.90;;;16.62;69.29;95748.38;5011275;28;20042;-45
2023/10/19 08:33:55;;;;;;;6.65;4.40;;;15.50;99.90;;;16.65;69.06;95740.63;5007891;28;20048;-44
2023/10/19 08:36:26;;;;;;;7.05;4.25;;;15.50;99.90;;;16.68;69.18;95740.13;5010839;28;20057;-45
2023/10/19 08:38:56;;;;;;;5.65;3.40;;;15.50;99.90;;;16.73;69.03;95740.22;5010185;28;20037;-44
2023/10/19 08:41:24;;;;;;;5.25;3.80;;;15.60;99.90;;;16.79;69.11;95733.03;5010134;28;20042;-47
2023/10/19 08:43:55;;;;;;;4.57;2.88;;;15.60;99.90;;;16.82;69.04;95729.06;5017428;28;20045;-44
2023/10/19 08:46:24;;;;;;;6.70;3.67;;;15.60;99.90;;;16.86;68.83;95728.31;5009217;28;20050;-45
2023/10/19 08:48:56;;;;;;;7.28;3.40;;;15.70;99.90;;;16.89;68.92;95727.84;5004446;28;20041;-43
2023/10/19 08:51:25;;;;;;;4.80;3.25;;;15.70;99.90;;;16.90;68.70;95718.72;5000690;28;20042;-42
2023/10/19 08:53:54;;;;;;;5.05;3.25;;;15.70;99.90;;;16.94;68.72;95721.72;5016551;28;20057;-41
2023/10/19 08:56:23;;;;;;;6.20;3.00;;;15.70;99.90;;;16.99;68.69;95718.28;5004913;28;20044;-44
2023/10/19 08:58:51;;;;;;;5.53;2.95;;;15.80;99.90;;;17.02;68.74;95721.31;5006505;28;20038;-43
2023/10/19 09:01:23;;;;;;;4.18;2.58;;;15.90;99.90;;;17.08;68.74;95720.31;5006372;28;20061;-42
2023/10/19 09:03:51;;;;;;;4.30;3.20;;;16.00;99.90;;;17.16;68.73;95724.44;5003972;28;20050;-44
2023/10/19 09:06:20;;;;;;;4.50;3.08;;;16.00;99.90;;;17.23;68.88;95713.47;5006250;28;20053;-44
2023/10/19 09:08:48;;;;;;;5.53;3.25;;;16.10;99.90;;;17.30;68.60;95722.19;5006976;28;20061;-44
2023/10/19 09:11:20;;;;;;;3.05;2.38;;;16.20;99.90;;;17.35;68.57;95724.09;5006180;28;20057;-42
2023/10/19 09:13:53;;;;;;;4.10;3.08;;;16.30;99.90;;;17.41;68.55;95718.56;5007083;28;20121;-44
2023/10/19 09:16:22;;;;;;;5.43;3.05;;;16.40;99.90;;;17.46;68.30;95712.41;5004158;28;20153;-44
2023/10/19 09:18:51;;;;;;;8.68;4.13;;;16.30;99.90;;;17.49;68.27;95717.28;5006073;28;20046;-42
2023/10/19 09:21:26;;;;;;;6.70;3.20;;;16.40;99.90;;;17.50;68.02;95711.63;5004459;28;20522;-44
2023/10/19 09:23:56;;;;;;;3.80;2.80;;;16.40;99.90;;;17.55;67.95;95708.22;5005477;28;20048;-42
2023/10/19 09:26:25;;;;;;;4.97;2.67;;;16.40;99.90;;;17.57;67.71;95703.38;5005851;28;20049;-44
2023/10/19 09:28:56;;;;;;;3.05;2.40;;;16.50;99.90;;;17.61;67.81;95698.31;5007148;28;20504;-44
2023/10/19 09:31:24;;;;;;;4.13;2.70;;;16.50;99.90;;;17.65;67.77;95697.53;5007642;28;20046;-44
2023/10/19 09:33:56;;;;;;;5.03;3.10;;;16.50;99.90;;;17.71;67.59;95703.78;5008915;28;20418;-43
2023/10/19 09:36:27;;;;;;;3.45;2.60;;;16.60;99.90;;;17.74;67.57;95705.16;5006903;28;20436;-43
2023/10/19 09:38:57;;;;;;;3.30;3.00;;;16.60;99.90;;;17.76;67.51;95694.94;5008299;28;20066;-43
2023/10/19 09:41:28;;;;;;;3.88;2.65;;;16.70;99.90;;;17.83;67.34;95687.50;5008786;28;20409;-46
2023/10/19 09:44:09;;;;;;;3.85;3.08;;;16.70;99.90;;;17.87;67.14;95688.63;5008320;28;20498;-43
2023/10/19 09:46:39;;;;;;;4.63;2.55;;;16.80;99.90;;;17.91;67.11;95689.75;5007945;28;20046;-44
2023/10/19 09:49:11;;;;;;;4.45;2.85;;;16.80;99.90;;;17.98;67.04;95689.56;5008338;28;20129;-47
2023/10/19 09:51:42;;;;;;;4.45;2.75;;;16.90;99.90;;;18.01;66.71;95683.63;5013673;28;20509;-45
2023/10/19 09:54:33;;;;;;;4.55;2.50;;;16.90;99.90;;;18.05;66.80;95684.78;5012731;28;20061;-44
2023/10/19 09:57:10;;;;;;;5.82;2.85;;;16.90;99.80;;;18.10;66.62;95679.41;5012540;28;20108;-43
2023/10/19 09:59:41;;;;;;;5.93;2.15;;;17.00;99.60;;;18.14;66.17;95685.09;5014301;28;20038;-45
2023/10/19 10:02:14;;;;;;;5.45;2.40;;;17.00;99.40;;;18.16;66.24;95677.56;5016537;28;20520;-46
2023/10/19 10:04:45;;;;;;;;;;;17.00;99.00;;;18.18;66.49;95691.59;5014012;28;20037;-41
2023/10/19 10:07:13;;;;;;;3.92;2.45;;;17.00;97.70;;;18.23;66.10;95689.75;5013377;28;19932;-45
2023/10/19 10:09:48;;;;;;;2.40;2.00;;;17.10;99.20;;;18.26;66.04;95680.34;5007014;28;20046;-45
2023/10/19 10:12:21;;;;;;;5.85;2.05;;;17.10;98.90;;;18.30;65.76;95676.91;5021459;28;20465;-43
2023/10/19 10:15:11;;;;;;;3.75;2.15;;;17.20;98.50;;;18.34;65.70;95679.88;4999119;28;20397;-47
2023/10/19 10:17:39;;;;;;;5.80;2.38;;;17.20;97.50;;;18.37;65.62;95681.25;5014059;28;20409;-43
2023/10/19 10:20:19;;;;;;;4.25;2.50;;;17.20;97.70;;;18.39;65.35;95676.41;5014290;28;20390;-43
2023/10/19 10:23:32;;;;;;;2.40;2.20;;;17.30;97.30;;;18.35;65.21;95680.69;5007074;28;20034;-43
2023/10/19 10:26:00;;;;;;;3.88;2.58;;;17.20;95.10;;;18.35;64.90;95680.69;5008331;28;20497;-43
2023/10/19 10:28:28;;;;;;;3.15;2.20;;;17.20;96.40;;;18.33;65.02;95667.47;5013720;28;20056;-42
2023/10/19 10:31:13;;;;;;;4.03;2.70;;;17.20;96.60;;;18.34;65.02;95670.97;5021187;28;20048;-45
2023/10/19 10:33:51;;;;;;;6.10;2.72;;;17.20;96.20;;;18.36;65.06;95671.53;5013881;28;20042;-44
2023/10/19 10:36:19;;;;;;;5.18;3.80;;;17.20;96.50;;;18.36;64.66;95677.75;5013112;28;20054;-42
2023/10/19 10:38:50;;;;;;;3.70;2.92;;;17.20;96.50;;;18.36;64.81;95672.34;5013457;28;20045;-47
2023/10/19 10:41:28;;;;;;;6.47;3.15;;;17.30;96.30;;;18.41;64.90;95677.75;5013960;28;20046;-47
2023/10/19 10:43:58;;;;;;;4.53;3.30;;;17.30;96.30;;;18.43;64.86;95680.22;5013293;28;20046;-43
2023/10/19 10:46:28;;;;;;;5.45;2.90;;;17.30;96.20;;;18.47;64.73;95686.69;5020940;28;20042;-46
2023/10/19 10:48:56;;;;;;;4.03;2.92;;;17.30;95.80;;;18.50;64.59;95683.50;5013116;28;20049;-47
2023/10/19 10:51:29;;;;;;;5.03;3.28;;;17.40;95.30;;;18.53;64.33;95682.16;5013464;28;20057;-45
2023/10/19 10:53:58;;;;;;;6.13;3.78;;;17.40;95.10;;;18.55;64.31;95685.41;5013539;28;20513;-44